sensor_id;sensor_type;location;lat;lon;timestamp;P1;durP1;ratioP1;P2;durP2;ratioP2
50605;SDS011;36557;53.572;10.170;2022-12-18T00:01:16;17.83;;;8.63;;
50605;SDS011;36557;53.572;10.170;2022-12-18T00:06:09;18.23;;;9.00;;
50605;SDS011;36557;53.572;10.170;2022-12-18T00:08:36;20.70;;;9.07;;
50605;SDS011;36557;53.572;10.170;2022-12-18T00:11:03;18.13;;;9.73;;
50605;SDS011;36557;53.572;10.170;2022-12-18T00:13:30;15.65;;;8.10;;
50605;SDS011;36557;53.572;10.170;2022-12-18T00:16:00;15.25;;;8.88;;
50605;SDS011;36557;53.572;10.170;2022-12-18T00:18:30;16.87;;;9.27;;
50605;SDS011;36557;53.572;10.170;2022-12-18T00:21:04;17.08;;;9.00;;
50605;SDS011;36557;53.572;10.170;2022-12-18T00:23:31;20.65;;;9.35;;
50605;SDS011;36557;53.572;10.170;2022-12-18T00:25:59;19.20;;;9.00;;
50605;SDS011;36557;53.572;10.170;2022-12-18T00:28:25;16.52;;;8.80;;
50605;SDS011;36557;53.572;10.170;2022-12-18T00:30:51;15.05;;;8.32;;
50605;SDS011;36557;53.572;10.170;2022-12-18T00:33:25;20.08;;;8.68;;
50605;SDS011;36557;53.572;10.170;2022-12-18T00:35:51;15.07;;;7.97;;
50605;SDS011;36557;53.572;10.170;2022-12-18T00:38:16;16.75;;;8.25;;
50605;SDS011;36557;53.572;10.170;2022-12-18T00:40:42;16.60;;;8.10;;
50605;SDS011;36557;53.572;10.170;2022-12-18T00:43:08;14.88;;;8.05;;
50605;SDS011;36557;53.572;10.170;2022-12-18T00:45:34;13.10;;;7.60;;
50605;SDS011;36557;53.572;10.170;2022-12-18T00:48:00;16.10;;;8.77;;
50605;SDS011;36557;53.572;10.170;2022-12-18T00:50:25;14.63;;;8.20;;
50605;SDS011;36557;53.572;10.170;2022-12-18T00:52:51;18.83;;;8.70;;
50605;SDS011;36557;53.572;10.170;2022-12-18T00:55:18;15.10;;;8.60;;
50605;SDS011;36557;53.572;10.170;2022-12-18T00:57:44;16.85;;;8.68;;
50605;SDS011;36557;53.572;10.170;2022-12-18T01:00:11;24.80;;;13.23;;
50605;SDS011;36557;53.572;10.170;2022-12-18T01:02:38;19.25;;;9.75;;
50605;SDS011;36557;53.572;10.170;2022-12-18T01:05:04;17.23;;;8.98;;
50605;SDS011;36557;53.572;10.170;2022-12-18T01:07:30;14.80;;;8.20;;
50605;SDS011;36557;53.572;10.170;2022-12-18T01:09:56;16.20;;;7.40;;
50605;SDS011;36557;53.572;10.170;2022-12-18T01:12:21;14.25;;;7.50;;
50605;SDS011;36557;53.572;10.170;2022-12-18T01:14:47;15.30;;;7.78;;
50605;SDS011;36557;53.572;10.170;2022-12-18T01:17:13;13.25;;;7.47;;
50605;SDS011;36557;53.572;10.170;2022-12-18T01:19:39;16.83;;;7.85;;
50605;SDS011;36557;53.572;10.170;2022-12-18T01:22:05;15.38;;;7.95;;
50605;SDS011;36557;53.572;10.170;2022-12-18T01:24:31;15.48;;;7.53;;
50605;SDS011;36557;53.572;10.170;2022-12-18T01:26:56;12.48;;;7.25;;
50605;SDS011;36557;53.572;10.170;2022-12-18T01:29:23;14.68;;;7.60;;
50605;SDS011;36557;53.572;10.170;2022-12-18T01:31:48;18.30;;;7.60;;
50605;SDS011;36557;53.572;10.170;2022-12-18T01:34:14;15.25;;;7.55;;
50605;SDS011;36557;53.572;10.170;2022-12-18T01:36:40;14.55;;;7.72;;
50605;SDS011;36557;53.572;10.170;2022-12-18T01:39:07;16.40;;;8.32;;
50605;SDS011;36557;53.572;10.170;2022-12-18T01:41:36;15.20;;;8.25;;
50605;SDS011;36557;53.572;10.170;2022-12-18T01:47:21;15.02;;;7.30;;
50605;SDS011;36557;53.572;10.170;2022-12-18T01:49:51;17.55;;;8.00;;
50605;SDS011;36557;53.572;10.170;2022-12-18T01:52:18;16.08;;;7.43;;
50605;SDS011;36557;53.572;10.170;2022-12-18T01:54:45;14.38;;;7.00;;
50605;SDS011;36557;53.572;10.170;2022-12-18T01:57:12;12.93;;;7.43;;
50605;SDS011;36557;53.572;10.170;2022-12-18T01:59:38;14.65;;;7.20;;
50605;SDS011;36557;53.572;10.170;2022-12-18T02:02:07;13.48;;;6.63;;
50605;SDS011;36557;53.572;10.170;2022-12-18T02:04:33;12.88;;;6.90;;
50605;SDS011;36557;53.572;10.170;2022-12-18T02:10:11;15.05;;;6.65;;
50605;SDS011;36557;53.572;10.170;2022-12-18T02:13:47;13.98;;;6.88;;
50605;SDS011;36557;53.572;10.170;2022-12-18T02:19:15;14.25;;;7.45;;
50605;SDS011;36557;53.572;10.170;2022-12-18T02:27:38;13.40;;;6.60;;
50605;SDS011;36557;53.572;10.170;2022-12-18T02:30:07;14.40;;;6.20;;
50605;SDS011;36557;53.572;10.170;2022-12-18T02:32:34;15.45;;;6.50;;
50605;SDS011;36557;53.572;10.170;2022-12-18T02:35:14;15.02;;;6.82;;
50605;SDS011;36557;53.572;10.170;2022-12-18T02:37:42;11.65;;;5.80;;
50605;SDS011;36557;53.572;10.170;2022-12-18T02:40:11;15.13;;;6.57;;
50605;SDS011;36557;53.572;10.170;2022-12-18T02:42:38;12.98;;;6.28;;
50605;SDS011;36557;53.572;10.170;2022-12-18T02:45:04;13.73;;;6.38;;
50605;SDS011;36557;53.572;10.170;2022-12-18T02:47:31;12.73;;;6.18;;
50605;SDS011;36557;53.572;10.170;2022-12-18T02:58:06;11.30;;;6.25;;
50605;SDS011;36557;53.572;10.170;2022-12-18T03:00:43;16.77;;;7.80;;
50605;SDS011;36557;53.572;10.170;2022-12-18T03:03:24;13.00;;;6.50;;
50605;SDS011;36557;53.572;10.170;2022-12-18T03:06:00;12.00;;;6.57;;
50605;SDS011;36557;53.572;10.170;2022-12-18T03:08:34;12.52;;;6.65;;
50605;SDS011;36557;53.572;10.170;2022-12-18T03:11:10;14.20;;;6.18;;
50605;SDS011;36557;53.572;10.170;2022-12-18T03:13:45;11.30;;;6.15;;
50605;SDS011;36557;53.572;10.170;2022-12-18T03:16:24;14.68;;;6.57;;
50605;SDS011;36557;53.572;10.170;2022-12-18T03:19:03;11.15;;;5.88;;
50605;SDS011;36557;53.572;10.170;2022-12-18T03:21:40;13.25;;;5.47;;
50605;SDS011;36557;53.572;10.170;2022-12-18T03:24:18;12.18;;;6.45;;
50605;SDS011;36557;53.572;10.170;2022-12-18T03:26:46;12.23;;;5.93;;
50605;SDS011;36557;53.572;10.170;2022-12-18T03:29:18;14.48;;;6.43;;
50605;SDS011;36557;53.572;10.170;2022-12-18T03:31:52;12.75;;;6.90;;
50605;SDS011;36557;53.572;10.170;2022-12-18T03:34:24;11.38;;;5.85;;
50605;SDS011;36557;53.572;10.170;2022-12-18T03:36:55;11.90;;;6.57;;
50605;SDS011;36557;53.572;10.170;2022-12-18T03:39:22;13.27;;;6.32;;
50605;SDS011;36557;53.572;10.170;2022-12-18T03:44:41;14.85;;;6.63;;
50605;SDS011;36557;53.572;10.170;2022-12-18T03:47:16;10.80;;;5.85;;
50605;SDS011;36557;53.572;10.170;2022-12-18T03:49:56;12.02;;;6.03;;
50605;SDS011;36557;53.572;10.170;2022-12-18T03:52:41;10.82;;;6.22;;
50605;SDS011;36557;53.572;10.170;2022-12-18T03:55:13;12.85;;;6.57;;
50605;SDS011;36557;53.572;10.170;2022-12-18T03:57:39;14.68;;;6.65;;
50605;SDS011;36557;53.572;10.170;2022-12-18T04:00:11;14.20;;;6.32;;
50605;SDS011;36557;53.572;10.170;2022-12-18T04:02:38;14.70;;;7.47;;
50605;SDS011;36557;53.572;10.170;2022-12-18T04:05:08;11.95;;;6.45;;
50605;SDS011;36557;53.572;10.170;2022-12-18T04:07:36;10.35;;;5.50;;
50605;SDS011;36557;53.572;10.170;2022-12-18T04:10:04;16.52;;;7.00;;
50605;SDS011;36557;53.572;10.170;2022-12-18T04:12:32;13.70;;;6.68;;
50605;SDS011;36557;53.572;10.170;2022-12-18T04:14:57;13.75;;;6.43;;
50605;SDS011;36557;53.572;10.170;2022-12-18T04:17:23;13.00;;;6.32;;
50605;SDS011;36557;53.572;10.170;2022-12-18T04:19:49;12.05;;;6.70;;
50605;SDS011;36557;53.572;10.170;2022-12-18T04:22:15;12.35;;;6.50;;
50605;SDS011;36557;53.572;10.170;2022-12-18T04:24:41;11.32;;;6.13;;
50605;SDS011;36557;53.572;10.170;2022-12-18T04:27:07;13.63;;;6.03;;
50605;SDS011;36557;53.572;10.170;2022-12-18T04:29:32;11.80;;;5.95;;
50605;SDS011;36557;53.572;10.170;2022-12-18T04:31:58;13.45;;;6.53;;
50605;SDS011;36557;53.572;10.170;2022-12-18T04:34:24;13.82;;;6.97;;
50605;SDS011;36557;53.572;10.170;2022-12-18T04:36:49;13.43;;;7.10;;
50605;SDS011;36557;53.572;10.170;2022-12-18T04:39:16;12.07;;;6.18;;
50605;SDS011;36557;53.572;10.170;2022-12-18T04:41:41;11.02;;;6.82;;
50605;SDS011;36557;53.572;10.170;2022-12-18T04:44:07;13.02;;;6.63;;
50605;SDS011;36557;53.572;10.170;2022-12-18T04:46:33;12.98;;;7.03;;
50605;SDS011;36557;53.572;10.170;2022-12-18T04:48:58;12.93;;;6.15;;
50605;SDS011;36557;53.572;10.170;2022-12-18T04:51:24;11.82;;;6.55;;
50605;SDS011;36557;53.572;10.170;2022-12-18T04:53:50;13.15;;;6.78;;
50605;SDS011;36557;53.572;10.170;2022-12-18T04:56:15;13.38;;;6.07;;
50605;SDS011;36557;53.572;10.170;2022-12-18T04:58:43;18.83;;;6.88;;
50605;SDS011;36557;53.572;10.170;2022-12-18T05:01:09;15.73;;;6.82;;
50605;SDS011;36557;53.572;10.170;2022-12-18T05:03:37;14.27;;;6.82;;
50605;SDS011;36557;53.572;10.170;2022-12-18T05:06:03;13.57;;;6.47;;
50605;SDS011;36557;53.572;10.170;2022-12-18T05:08:30;13.20;;;6.45;;
50605;SDS011;36557;53.572;10.170;2022-12-18T05:11:03;12.93;;;6.15;;
50605;SDS011;36557;53.572;10.170;2022-12-18T05:13:32;13.25;;;6.68;;
50605;SDS011;36557;53.572;10.170;2022-12-18T05:15:58;16.38;;;6.65;;
50605;SDS011;36557;53.572;10.170;2022-12-18T05:18:24;12.98;;;6.95;;
50605;SDS011;36557;53.572;10.170;2022-12-18T05:20:51;15.27;;;7.38;;
50605;SDS011;36557;53.572;10.170;2022-12-18T05:23:17;15.63;;;7.22;;
50605;SDS011;36557;53.572;10.170;2022-12-18T05:25:50;15.15;;;6.88;;
50605;SDS011;36557;53.572;10.170;2022-12-18T05:28:20;16.30;;;7.60;;
50605;SDS011;36557;53.572;10.170;2022-12-18T05:30:47;14.55;;;7.57;;
50605;SDS011;36557;53.572;10.170;2022-12-18T05:33:14;12.18;;;6.78;;
50605;SDS011;36557;53.572;10.170;2022-12-18T05:35:40;14.48;;;7.35;;
50605;SDS011;36557;53.572;10.170;2022-12-18T05:38:06;15.45;;;7.32;;
50605;SDS011;36557;53.572;10.170;2022-12-18T05:40:31;14.70;;;7.03;;
50605;SDS011;36557;53.572;10.170;2022-12-18T05:42:57;14.00;;;7.10;;
50605;SDS011;36557;53.572;10.170;2022-12-18T05:45:23;13.73;;;7.03;;
50605;SDS011;36557;53.572;10.170;2022-12-18T05:47:49;14.65;;;8.07;;
50605;SDS011;36557;53.572;10.170;2022-12-18T05:50:14;12.98;;;6.60;;
50605;SDS011;36557;53.572;10.170;2022-12-18T05:52:40;16.92;;;8.27;;
50605;SDS011;36557;53.572;10.170;2022-12-18T05:55:06;15.65;;;7.70;;
50605;SDS011;36557;53.572;10.170;2022-12-18T05:57:32;13.43;;;7.10;;
50605;SDS011;36557;53.572;10.170;2022-12-18T05:59:57;15.98;;;7.55;;
50605;SDS011;36557;53.572;10.170;2022-12-18T06:02:23;14.13;;;7.13;;
50605;SDS011;36557;53.572;10.170;2022-12-18T06:04:49;14.50;;;7.40;;
50605;SDS011;36557;53.572;10.170;2022-12-18T06:07:15;13.07;;;7.80;;
50605;SDS011;36557;53.572;10.170;2022-12-18T06:09:40;18.73;;;8.10;;
50605;SDS011;36557;53.572;10.170;2022-12-18T06:12:06;16.48;;;7.10;;
50605;SDS011;36557;53.572;10.170;2022-12-18T06:14:32;15.85;;;7.30;;
50605;SDS011;36557;53.572;10.170;2022-12-18T06:16:57;14.25;;;8.00;;
50605;SDS011;36557;53.572;10.170;2022-12-18T06:19:23;17.05;;;7.30;;
50605;SDS011;36557;53.572;10.170;2022-12-18T06:21:49;14.55;;;7.97;;
50605;SDS011;36557;53.572;10.170;2022-12-18T06:24:15;14.57;;;8.07;;
50605;SDS011;36557;53.572;10.170;2022-12-18T06:26:41;15.13;;;8.00;;
50605;SDS011;36557;53.572;10.170;2022-12-18T06:29:06;16.63;;;7.93;;
50605;SDS011;36557;53.572;10.170;2022-12-18T06:31:32;18.80;;;8.10;;
50605;SDS011;36557;53.572;10.170;2022-12-18T06:33:58;15.32;;;7.43;;
50605;SDS011;36557;53.572;10.170;2022-12-18T06:36:24;16.92;;;7.60;;
50605;SDS011;36557;53.572;10.170;2022-12-18T06:38:49;17.75;;;8.60;;
50605;SDS011;36557;53.572;10.170;2022-12-18T06:41:16;14.18;;;8.02;;
50605;SDS011;36557;53.572;10.170;2022-12-18T06:43:44;15.23;;;7.78;;
50605;SDS011;36557;53.572;10.170;2022-12-18T06:46:10;15.63;;;7.88;;
50605;SDS011;36557;53.572;10.170;2022-12-18T06:48:36;15.93;;;8.02;;
50605;SDS011;36557;53.572;10.170;2022-12-18T06:51:02;18.77;;;7.88;;
50605;SDS011;36557;53.572;10.170;2022-12-18T06:53:28;15.65;;;7.60;;
50605;SDS011;36557;53.572;10.170;2022-12-18T06:56:05;15.40;;;7.82;;
50605;SDS011;36557;53.572;10.170;2022-12-18T06:58:32;13.57;;;6.90;;
50605;SDS011;36557;53.572;10.170;2022-12-18T07:01:05;15.32;;;7.72;;
50605;SDS011;36557;53.572;10.170;2022-12-18T07:03:32;19.20;;;8.27;;
50605;SDS011;36557;53.572;10.170;2022-12-18T07:05:57;17.75;;;9.05;;
50605;SDS011;36557;53.572;10.170;2022-12-18T07:08:24;15.20;;;8.45;;
50605;SDS011;36557;53.572;10.170;2022-12-18T07:10:50;14.75;;;8.30;;
50605;SDS011;36557;53.572;10.170;2022-12-18T07:13:16;17.45;;;7.82;;
50605;SDS011;36557;53.572;10.170;2022-12-18T07:15:42;15.50;;;7.20;;
50605;SDS011;36557;53.572;10.170;2022-12-18T07:18:09;18.10;;;8.38;;
50605;SDS011;36557;53.572;10.170;2022-12-18T07:20:35;18.67;;;8.85;;
50605;SDS011;36557;53.572;10.170;2022-12-18T07:23:02;19.17;;;8.27;;
50605;SDS011;36557;53.572;10.170;2022-12-18T07:25:28;24.02;;;8.88;;
50605;SDS011;36557;53.572;10.170;2022-12-18T07:27:54;18.02;;;8.02;;
50605;SDS011;36557;53.572;10.170;2022-12-18T07:30:20;17.88;;;8.43;;
50605;SDS011;36557;53.572;10.170;2022-12-18T07:32:45;16.25;;;8.15;;
50605;SDS011;36557;53.572;10.170;2022-12-18T07:35:11;12.90;;;6.68;;
50605;SDS011;36557;53.572;10.170;2022-12-18T07:37:37;17.90;;;7.82;;
50605;SDS011;36557;53.572;10.170;2022-12-18T07:40:03;13.85;;;7.60;;
50605;SDS011;36557;53.572;10.170;2022-12-18T07:42:29;20.38;;;8.52;;
50605;SDS011;36557;53.572;10.170;2022-12-18T07:44:58;17.38;;;7.45;;
50605;SDS011;36557;53.572;10.170;2022-12-18T07:47:25;16.42;;;8.10;;
50605;SDS011;36557;53.572;10.170;2022-12-18T07:49:51;18.83;;;8.05;;
50605;SDS011;36557;53.572;10.170;2022-12-18T07:52:17;18.92;;;8.73;;
50605;SDS011;36557;53.572;10.170;2022-12-18T07:54:43;22.50;;;8.40;;
50605;SDS011;36557;53.572;10.170;2022-12-18T07:57:08;19.30;;;8.20;;
50605;SDS011;36557;53.572;10.170;2022-12-18T07:59:34;17.83;;;8.38;;
50605;SDS011;36557;53.572;10.170;2022-12-18T08:02:00;20.30;;;8.38;;
50605;SDS011;36557;53.572;10.170;2022-12-18T08:04:26;18.20;;;8.88;;
50605;SDS011;36557;53.572;10.170;2022-12-18T08:06:52;17.00;;;7.97;;
50605;SDS011;36557;53.572;10.170;2022-12-18T08:09:17;17.83;;;8.80;;
50605;SDS011;36557;53.572;10.170;2022-12-18T08:11:43;17.65;;;8.18;;
50605;SDS011;36557;53.572;10.170;2022-12-18T08:14:09;18.05;;;8.27;;
50605;SDS011;36557;53.572;10.170;2022-12-18T08:16:35;14.00;;;6.25;;
50605;SDS011;36557;53.572;10.170;2022-12-18T08:19:01;11.48;;;7.00;;
50605;SDS011;36557;53.572;10.170;2022-12-18T08:21:28;17.08;;;8.43;;
50605;SDS011;36557;53.572;10.170;2022-12-18T08:23:56;18.10;;;8.60;;
50605;SDS011;36557;53.572;10.170;2022-12-18T08:26:23;17.65;;;8.93;;
50605;SDS011;36557;53.572;10.170;2022-12-18T08:28:51;17.70;;;8.32;;
50605;SDS011;36557;53.572;10.170;2022-12-18T08:31:18;16.20;;;8.00;;
50605;SDS011;36557;53.572;10.170;2022-12-18T08:33:44;18.13;;;8.02;;
50605;SDS011;36557;53.572;10.170;2022-12-18T08:36:10;18.70;;;7.55;;
50605;SDS011;36557;53.572;10.170;2022-12-18T08:38:36;13.77;;;7.97;;
50605;SDS011;36557;53.572;10.170;2022-12-18T08:41:03;19.65;;;9.13;;
50605;SDS011;36557;53.572;10.170;2022-12-18T08:43:33;15.68;;;7.80;;
50605;SDS011;36557;53.572;10.170;2022-12-18T08:46:18;16.23;;;8.55;;
50605;SDS011;36557;53.572;10.170;2022-12-18T08:48:45;20.17;;;9.18;;
50605;SDS011;36557;53.572;10.170;2022-12-18T08:51:11;15.90;;;7.15;;
50605;SDS011;36557;53.572;10.170;2022-12-18T08:53:37;18.05;;;9.05;;
50605;SDS011;36557;53.572;10.170;2022-12-18T08:56:03;17.10;;;7.82;;
50605;SDS011;36557;53.572;10.170;2022-12-18T08:58:29;18.00;;;7.90;;
50605;SDS011;36557;53.572;10.170;2022-12-18T09:01:05;16.42;;;8.40;;
50605;SDS011;36557;53.572;10.170;2022-12-18T09:03:34;22.40;;;9.57;;
50605;SDS011;36557;53.572;10.170;2022-12-18T09:06:00;19.77;;;8.15;;
50605;SDS011;36557;53.572;10.170;2022-12-18T09:08:26;18.38;;;8.32;;
50605;SDS011;36557;53.572;10.170;2022-12-18T09:10:52;16.80;;;7.50;;
50605;SDS011;36557;53.572;10.170;2022-12-18T09:13:18;16.15;;;8.70;;
50605;SDS011;36557;53.572;10.170;2022-12-18T09:15:45;19.00;;;8.23;;
50605;SDS011;36557;53.572;10.170;2022-12-18T09:18:15;13.32;;;6.65;;
50605;SDS011;36557;53.572;10.170;2022-12-18T09:20:42;17.17;;;8.63;;
50605;SDS011;36557;53.572;10.170;2022-12-18T09:23:08;15.77;;;7.82;;
50605;SDS011;36557;53.572;10.170;2022-12-18T09:25:34;25.30;;;11.57;;
50605;SDS011;36557;53.572;10.170;2022-12-18T09:28:05;17.83;;;8.00;;
50605;SDS011;36557;53.572;10.170;2022-12-18T09:30:37;14.27;;;7.77;;
50605;SDS011;36557;53.572;10.170;2022-12-18T09:33:03;19.48;;;9.13;;
50605;SDS011;36557;53.572;10.170;2022-12-18T09:35:29;16.13;;;8.13;;
50605;SDS011;36557;53.572;10.170;2022-12-18T09:37:54;16.52;;;7.38;;
50605;SDS011;36557;53.572;10.170;2022-12-18T09:40:21;17.30;;;7.80;;
50605;SDS011;36557;53.572;10.170;2022-12-18T09:42:51;19.27;;;8.45;;
50605;SDS011;36557;53.572;10.170;2022-12-18T09:45:24;19.60;;;7.75;;
50605;SDS011;36557;53.572;10.170;2022-12-18T09:47:50;17.40;;;8.57;;
50605;SDS011;36557;53.572;10.170;2022-12-18T09:50:24;17.33;;;7.78;;
50605;SDS011;36557;53.572;10.170;2022-12-18T09:52:59;16.27;;;7.75;;
50605;SDS011;36557;53.572;10.170;2022-12-18T09:55:33;17.92;;;8.80;;
50605;SDS011;36557;53.572;10.170;2022-12-18T09:58:49;15.20;;;7.13;;
50605;SDS011;36557;53.572;10.170;2022-12-18T10:00:54;24.92;;;10.60;;
50605;SDS011;36557;53.572;10.170;2022-12-18T10:03:20;25.42;;;11.05;;
50605;SDS011;36557;53.572;10.170;2022-12-18T10:08:46;17.88;;;8.15;;
50605;SDS011;36557;53.572;10.170;2022-12-18T10:22:29;17.65;;;8.48;;
50605;SDS011;36557;53.572;10.170;2022-12-18T10:25:06;14.80;;;7.60;;
50605;SDS011;36557;53.572;10.170;2022-12-18T10:28:00;16.90;;;8.88;;
50605;SDS011;36557;53.572;10.170;2022-12-18T10:30:37;15.73;;;8.07;;
50605;SDS011;36557;53.572;10.170;2022-12-18T10:33:04;15.88;;;7.85;;
50605;SDS011;36557;53.572;10.170;2022-12-18T10:35:30;22.67;;;8.45;;
50605;SDS011;36557;53.572;10.170;2022-12-18T10:37:59;21.30;;;9.30;;
50605;SDS011;36557;53.572;10.170;2022-12-18T10:43:14;17.27;;;8.32;;
50605;SDS011;36557;53.572;10.170;2022-12-18T10:45:44;16.58;;;8.57;;
50605;SDS011;36557;53.572;10.170;2022-12-18T10:48:25;19.63;;;9.50;;
50605;SDS011;36557;53.572;10.170;2022-12-18T10:50:53;15.25;;;8.65;;
50605;SDS011;36557;53.572;10.170;2022-12-18T10:53:22;16.40;;;6.93;;
50605;SDS011;36557;53.572;10.170;2022-12-18T10:55:50;17.23;;;8.40;;
50605;SDS011;36557;53.572;10.170;2022-12-18T10:58:26;18.27;;;8.32;;
50605;SDS011;36557;53.572;10.170;2022-12-18T11:03:38;17.17;;;8.70;;
50605;SDS011;36557;53.572;10.170;2022-12-18T11:06:13;16.70;;;8.48;;
50605;SDS011;36557;53.572;10.170;2022-12-18T11:08:40;15.90;;;8.25;;
50605;SDS011;36557;53.572;10.170;2022-12-18T11:11:15;18.48;;;7.90;;
50605;SDS011;36557;53.572;10.170;2022-12-18T11:13:51;16.45;;;8.75;;
50605;SDS011;36557;53.572;10.170;2022-12-18T11:16:36;17.83;;;9.05;;
50605;SDS011;36557;53.572;10.170;2022-12-18T11:21:56;15.57;;;8.32;;
50605;SDS011;36557;53.572;10.170;2022-12-18T11:24:32;20.33;;;10.23;;
50605;SDS011;36557;53.572;10.170;2022-12-18T11:27:06;17.88;;;9.48;;
50605;SDS011;36557;53.572;10.170;2022-12-18T11:29:42;18.65;;;8.85;;
50605;SDS011;36557;53.572;10.170;2022-12-18T11:34:50;15.93;;;7.55;;
50605;SDS011;36557;53.572;10.170;2022-12-18T11:37:22;18.58;;;8.43;;
50605;SDS011;36557;53.572;10.170;2022-12-18T11:40:34;17.50;;;8.50;;
50605;SDS011;36557;53.572;10.170;2022-12-18T11:45:31;17.35;;;8.80;;
50605;SDS011;36557;53.572;10.170;2022-12-18T11:48:14;20.08;;;8.95;;
50605;SDS011;36557;53.572;10.170;2022-12-18T11:50:52;54.65;;;19.77;;
50605;SDS011;36557;53.572;10.170;2022-12-18T11:53:22;20.65;;;8.68;;
50605;SDS011;36557;53.572;10.170;2022-12-18T11:56:00;18.05;;;8.20;;
50605;SDS011;36557;53.572;10.170;2022-12-18T12:15:17;19.77;;;8.48;;
50605;SDS011;36557;53.572;10.170;2022-12-18T12:17:34;17.90;;;8.45;;
50605;SDS011;36557;53.572;10.170;2022-12-18T12:25:37;24.88;;;9.45;;
50605;SDS011;36557;53.572;10.170;2022-12-18T12:28:13;20.60;;;10.07;;
50605;SDS011;36557;53.572;10.170;2022-12-18T12:31:13;19.00;;;9.75;;
50605;SDS011;36557;53.572;10.170;2022-12-18T12:37:03;23.70;;;11.07;;
50605;SDS011;36557;53.572;10.170;2022-12-18T12:39:43;21.60;;;10.52;;
50605;SDS011;36557;53.572;10.170;2022-12-18T12:45:24;28.33;;;12.77;;
50605;SDS011;36557;53.572;10.170;2022-12-18T12:47:55;23.00;;;10.35;;
50605;SDS011;36557;53.572;10.170;2022-12-18T12:50:24;22.42;;;9.70;;
50605;SDS011;36557;53.572;10.170;2022-12-18T12:52:54;24.55;;;10.60;;
50605;SDS011;36557;53.572;10.170;2022-12-18T12:55:22;24.20;;;9.50;;
50605;SDS011;36557;53.572;10.170;2022-12-18T13:00:47;29.30;;;12.43;;
50605;SDS011;36557;53.572;10.170;2022-12-18T13:03:35;26.15;;;12.18;;
50605;SDS011;36557;53.572;10.170;2022-12-18T13:06:17;21.85;;;10.48;;
50605;SDS011;36557;53.572;10.170;2022-12-18T13:09:10;22.95;;;10.93;;
50605;SDS011;36557;53.572;10.170;2022-12-18T13:11:41;22.42;;;9.75;;
50605;SDS011;36557;53.572;10.170;2022-12-18T13:14:34;22.58;;;9.30;;
50605;SDS011;36557;53.572;10.170;2022-12-18T13:20:06;15.27;;;6.80;;
50605;SDS011;36557;53.572;10.170;2022-12-18T13:35:40;20.55;;;9.55;;
50605;SDS011;36557;53.572;10.170;2022-12-18T13:40:57;20.95;;;8.35;;
50605;SDS011;36557;53.572;10.170;2022-12-18T13:43:45;25.77;;;10.98;;
50605;SDS011;36557;53.572;10.170;2022-12-18T13:48:50;24.40;;;10.68;;
50605;SDS011;36557;53.572;10.170;2022-12-18T13:51:28;20.20;;;10.07;;
50605;SDS011;36557;53.572;10.170;2022-12-18T13:56:25;26.85;;;10.02;;
50605;SDS011;36557;53.572;10.170;2022-12-18T13:59:12;24.90;;;10.43;;
50605;SDS011;36557;53.572;10.170;2022-12-18T14:01:47;20.08;;;9.80;;
50605;SDS011;36557;53.572;10.170;2022-12-18T14:06:50;21.90;;;9.40;;
50605;SDS011;36557;53.572;10.170;2022-12-18T14:09:20;19.38;;;8.77;;
50605;SDS011;36557;53.572;10.170;2022-12-18T14:11:50;21.23;;;9.00;;
50605;SDS011;36557;53.572;10.170;2022-12-18T14:14:17;21.05;;;8.73;;
50605;SDS011;36557;53.572;10.170;2022-12-18T14:16:45;23.88;;;9.77;;
50605;SDS011;36557;53.572;10.170;2022-12-18T14:19:13;26.42;;;10.13;;
50605;SDS011;36557;53.572;10.170;2022-12-18T14:21:45;22.17;;;8.50;;
50605;SDS011;36557;53.572;10.170;2022-12-18T14:24:18;23.52;;;10.50;;
50605;SDS011;36557;53.572;10.170;2022-12-18T14:26:46;23.65;;;9.82;;
50605;SDS011;36557;53.572;10.170;2022-12-18T14:29:26;23.95;;;9.90;;
50605;SDS011;36557;53.572;10.170;2022-12-18T14:32:10;23.13;;;8.40;;
50605;SDS011;36557;53.572;10.170;2022-12-18T14:34:39;27.85;;;12.18;;
50605;SDS011;36557;53.572;10.170;2022-12-18T14:37:04;22.83;;;10.80;;
50605;SDS011;36557;53.572;10.170;2022-12-18T14:39:31;26.15;;;11.27;;
50605;SDS011;36557;53.572;10.170;2022-12-18T14:41:57;29.98;;;11.20;;
50605;SDS011;36557;53.572;10.170;2022-12-18T14:44:23;23.63;;;10.07;;
50605;SDS011;36557;53.572;10.170;2022-12-18T14:46:49;24.75;;;10.07;;
50605;SDS011;36557;53.572;10.170;2022-12-18T14:49:32;28.05;;;12.02;;
50605;SDS011;36557;53.572;10.170;2022-12-18T14:54:31;30.25;;;11.82;;
50605;SDS011;36557;53.572;10.170;2022-12-18T14:59:40;27.23;;;11.10;;
50605;SDS011;36557;53.572;10.170;2022-12-18T15:02:18;29.35;;;11.90;;
50605;SDS011;36557;53.572;10.170;2022-12-18T15:04:47;27.58;;;12.43;;
50605;SDS011;36557;53.572;10.170;2022-12-18T15:07:20;32.22;;;12.05;;
50605;SDS011;36557;53.572;10.170;2022-12-18T15:10:08;26.42;;;11.38;;
50605;SDS011;36557;53.572;10.170;2022-12-18T15:12:41;24.48;;;9.80;;
50605;SDS011;36557;53.572;10.170;2022-12-18T15:15:45;35.45;;;15.50;;
50605;SDS011;36557;53.572;10.170;2022-12-18T15:20:55;37.60;;;17.25;;
50605;SDS011;36557;53.572;10.170;2022-12-18T15:26:11;32.83;;;14.10;;
50605;SDS011;36557;53.572;10.170;2022-12-18T15:33:40;39.80;;;17.20;;
50605;SDS011;36557;53.572;10.170;2022-12-18T15:36:13;38.35;;;15.27;;
50605;SDS011;36557;53.572;10.170;2022-12-18T15:38:40;63.85;;;21.73;;
50605;SDS011;36557;53.572;10.170;2022-12-18T15:41:13;81.35;;;28.40;;
50605;SDS011;36557;53.572;10.170;2022-12-18T15:43:40;51.20;;;19.60;;
50605;SDS011;36557;53.572;10.170;2022-12-18T15:46:08;39.70;;;15.90;;
50605;SDS011;36557;53.572;10.170;2022-12-18T15:48:39;71.75;;;25.35;;
50605;SDS011;36557;53.572;10.170;2022-12-18T15:54:01;39.83;;;17.60;;
50605;SDS011;36557;53.572;10.170;2022-12-18T15:56:30;48.58;;;18.98;;
50605;SDS011;36557;53.572;10.170;2022-12-18T15:59:19;46.17;;;17.83;;
50605;SDS011;36557;53.572;10.170;2022-12-18T16:01:49;44.70;;;19.08;;
50605;SDS011;36557;53.572;10.170;2022-12-18T16:04:18;41.58;;;16.92;;
50605;SDS011;36557;53.572;10.170;2022-12-18T16:06:45;42.10;;;18.38;;
50605;SDS011;36557;53.572;10.170;2022-12-18T16:09:11;51.53;;;22.23;;
50605;SDS011;36557;53.572;10.170;2022-12-18T16:11:37;69.30;;;27.75;;
50605;SDS011;36557;53.572;10.170;2022-12-18T16:16:47;47.53;;;20.77;;
50605;SDS011;36557;53.572;10.170;2022-12-18T16:19:14;33.58;;;13.43;;
50605;SDS011;36557;53.572;10.170;2022-12-18T16:21:39;44.97;;;16.23;;
50605;SDS011;36557;53.572;10.170;2022-12-18T16:24:05;45.80;;;18.63;;
50605;SDS011;36557;53.572;10.170;2022-12-18T16:26:38;39.85;;;15.05;;
50605;SDS011;36557;53.572;10.170;2022-12-18T16:29:03;46.45;;;20.75;;
50605;SDS011;36557;53.572;10.170;2022-12-18T16:31:29;44.25;;;19.95;;
50605;SDS011;36557;53.572;10.170;2022-12-18T16:36:51;29.95;;;12.02;;
50605;SDS011;36557;53.572;10.170;2022-12-18T16:39:18;41.83;;;18.05;;
50605;SDS011;36557;53.572;10.170;2022-12-18T16:41:45;46.05;;;17.77;;
50605;SDS011;36557;53.572;10.170;2022-12-18T16:44:11;41.08;;;15.75;;
50605;SDS011;36557;53.572;10.170;2022-12-18T16:46:37;38.40;;;14.73;;
50605;SDS011;36557;53.572;10.170;2022-12-18T16:49:04;33.65;;;12.23;;
50605;SDS011;36557;53.572;10.170;2022-12-18T16:51:30;30.08;;;13.05;;